Time;durP1;ratioP1;P1;durP2;ratioP2;P2;SDS_P1;SDS_P2;PMS_P1;PMS_P2;Temp;Humidity;BMP_temperature;BMP_pressure;BME280_temperature;BME280_humidity;BME280_pressure;Samples;Min_cycle;Max_cycle;Signal;HPM_P1;HPM_P2
2022/02/03 00:00:40;;;;;;;18.77;4.07;;;3.90;99.90;;;;;;5042355;28;20046;-74
2022/02/03 00:03:23;;;;;;;14.50;4.10;;;3.90;99.90;;;;;;5036124;28;20029;-74
2022/02/03 00:05:53;;;;;;;23.33;3.80;;;3.90;99.90;;;;;;5033210;28;20059;-74
2022/02/03 00:25:02;;;;;;;18.85;3.65;;;4.10;99.90;;;;;;5030652;28;20037;-74
2022/02/03 00:27:39;;;;;;;17.55;4.15;;;4.10;99.90;;;;;;5026837;28;20029;-74
2022/02/03 00:30:11;;;;;;;18.67;4.00;;;4.00;99.90;;;;;;5032121;28;20033;-74
2022/02/03 00:32:55;;;;;;;19.40;3.80;;;4.10;99.90;;;;;;5033862;28;20026;-74
2022/02/03 00:35:33;;;;;;;24.00;4.07;;;4.10;99.90;;;;;;5027260;28;20364;-72
2022/02/03 00:38:19;;;;;;;18.98;3.53;;;4.10;99.90;;;;;;5035406;28;20094;-72
2022/02/03 00:49:05;;;;;;;14.90;3.28;;;4.20;99.90;;;;;;5035014;28;20063;-73
2022/02/03 00:51:31;;;;;;;21.63;3.67;;;4.20;99.90;;;;;;5038565;28;20116;-72
2022/02/03 00:53:58;;;;;;;18.90;4.90;;;4.20;99.90;;;;;;5039221;28;20494;-73
2022/02/03 00:56:35;;;;;;;21.30;3.95;;;4.20;99.90;;;;;;5039806;28;20144;-73
2022/02/03 00:59:10;;;;;;;22.33;3.63;;;4.30;99.90;;;;;;5027475;28;20562;-73
2022/02/03 01:01:39;;;;;;;16.92;3.15;;;4.30;99.90;;;;;;5029028;28;20112;-73
2022/02/03 01:04:10;;;;;;;16.45;3.42;;;4.30;99.90;;;;;;5032950;28;20120;-73
2022/02/03 01:06:42;;;;;;;;;;;4.30;99.90;;;;;;5034960;28;20033;-73
2022/02/03 01:09:09;;;;;;;20.00;2.72;;;4.30;99.90;;;;;;5035784;28;20405;-73
2022/02/03 01:11:41;;;;;;;15.52;2.88;;;4.30;99.90;;;;;;5039584;28;20044;-73
2022/02/03 01:14:15;;;;;;;20.38;3.58;;;4.40;99.90;;;;;;5037209;28;20135;-73
2022/02/03 01:17:07;;;;;;;20.65;2.78;;;4.30;99.90;;;;;;5042507;28;20040;-72
2022/02/03 01:44:03;;;;;;;14.85;3.10;;;4.40;99.90;;;;;;5019927;28;20509;-73
2022/02/03 01:46:56;;;;;;;14.65;3.50;;;4.40;99.90;;;;;;5036130;28;20029;-73
2022/02/03 01:52:38;;;;;;;14.70;2.55;;;4.40;99.90;;;;;;4995161;28;20066;-73
2022/02/03 01:55:07;;;;;;;19.65;3.20;;;4.40;99.90;;;;;;5038075;28;20386;-73
2022/02/03 01:57:59;;;;;;;17.73;2.92;;;4.40;99.90;;;;;;5016744;28;20486;-73
2022/02/03 02:00:25;;;;;;;22.75;3.42;;;4.40;99.90;;;;;;4982209;28;20077;-73
2022/02/03 02:03:13;;;;;;;15.35;2.90;;;4.40;99.90;;;;;;5046216;28;20034;-73
2022/02/03 02:06:09;;;;;;;19.75;3.60;;;4.50;99.90;;;;;;5041207;28;20486;-74
2022/02/03 02:08:54;;;;;;;19.00;3.53;;;4.50;99.90;;;;;;5034943;28;20026;-73
2022/02/03 02:11:47;;;;;;;21.63;3.40;;;4.50;99.90;;;;;;5030145;28;20111;-73
2022/02/03 02:19:56;;;;;;;15.05;2.83;;;4.50;99.90;;;;;;5035515;28;20029;-74
2022/02/03 02:39:33;;;;;;;18.25;4.00;;;4.60;99.90;;;;;;5017196;28;20036;-74
2022/02/03 02:45:24;;;;;;;13.48;3.42;;;4.60;99.90;;;;;;5032909;28;20136;-74
2022/02/03 02:48:07;;;;;;;16.40;3.92;;;4.60;99.90;;;;;;5019654;28;20060;-73
2022/02/03 02:50:46;;;;;;;11.48;2.92;;;4.60;99.90;;;;;;5014209;28;20029;-73
2022/02/03 02:53:36;;;;;;;19.58;3.05;;;4.60;99.90;;;;;;5018897;28;20427;-74
2022/02/03 03:29:36;;;;;;;20.98;3.72;;;4.70;99.90;;;;;;5035472;28;20025;-73
2022/02/03 03:37:27;;;;;;;22.50;3.92;;;4.70;99.90;;;;;;5034037;28;20028;-74
2022/02/03 03:39:58;;;;;;;23.58;4.30;;;4.80;99.90;;;;;;5039703;28;20108;-74
2022/02/03 03:42:30;;;;;;;16.40;3.83;;;4.80;99.90;;;;;;5034485;28;20032;-73
2022/02/03 03:44:59;;;;;;;15.15;3.58;;;4.80;99.90;;;;;;5036759;28;20025;-73
2022/02/03 03:47:28;;;;;;;17.80;4.07;;;4.80;99.90;;;;;;5037861;28;20101;-74
2022/02/03 03:50:01;;;;;;;18.15;4.20;;;4.80;99.90;;;;;;5035382;28;20029;-74
2022/02/03 03:52:30;;;;;;;20.75;4.00;;;4.80;99.90;;;;;;5029478;28;20048;-74
2022/02/03 04:00:47;;;;;;;23.42;4.50;;;4.90;99.90;;;;;;5033076;28;20033;-74
2022/02/03 04:30:04;;;;;;;18.10;5.57;;;5.00;99.90;;;;;;5032767;28;20103;-74
2022/02/03 05:01:19;;;;;;;20.80;7.72;;;5.10;99.90;;;;;;5025770;28;20084;-74
2022/02/03 05:10:32;;;;;;;22.65;8.07;;;5.20;99.90;;;;;;5039309;28;20505;-74
2022/02/03 05:16:20;;;;;;;17.58;7.13;;;5.20;99.90;;;;;;5043031;28;20040;-75
2022/02/03 05:22:34;;;;;;;17.20;8.20;;;5.20;99.90;;;;;;5035586;28;20057;-74
2022/02/03 05:43:41;;;;;;;20.30;9.10;;;5.30;99.90;;;;;;5040330;28;20033;-75
2022/02/03 05:48:44;;;;;;;20.55;8.65;;;5.30;99.90;;;;;;5037890;28;20076;-74
2022/02/03 06:04:37;;;;;;;17.50;9.07;;;5.40;99.90;;;;;;5034600;28;20022;-76
2022/02/03 06:15:08;;;;;;;14.18;8.07;;;5.40;99.90;;;;;;5035583;28;20207;-74
2022/02/03 06:20:40;;;;;;;16.08;8.85;;;5.50;99.90;;;;;;5044158;28;20048;-72
2022/02/03 06:20:55;;;;;;;19.80;7.85;;;5.50;99.90;;;;;;5034499;28;20041;-75
2022/02/03 06:23:28;;;;;;;13.43;7.65;;;5.50;99.90;;;;;;5033493;28;20084;-75
2022/02/03 06:28:46;;;;;;;13.13;7.93;;;5.50;99.90;;;;;;5032580;28;20029;-75
2022/02/03 06:31:12;;;;;;;16.83;8.63;;;5.50;99.90;;;;;;5033777;28;20052;-73
2022/02/03 06:33:37;;;;;;;17.02;9.15;;;5.50;99.90;;;;;;5035494;28;20041;-74
2022/02/03 06:36:03;;;;;;;18.08;9.00;;;5.50;99.90;;;;;;5011540;28;20034;-73
2022/02/03 06:38:31;;;;;;;18.10;9.75;;;5.60;99.90;;;;;;5038033;28;20021;-73
2022/02/03 06:40:57;;;;;;;18.33;9.50;;;5.60;99.90;;;;;;5038376;28;20053;-74
2022/02/03 06:43:22;;;;;;;17.48;10.32;;;5.60;99.90;;;;;;5018216;28;20060;-73
2022/02/03 06:45:58;;;;;;;19.02;9.40;;;5.60;99.90;;;;;;5039589;28;20091;-74
2022/02/03 06:48:25;;;;;;;21.60;10.30;;;5.60;99.90;;;;;;5042185;28;20471;-73
2022/02/03 06:50:59;;;;;;;19.88;10.75;;;5.60;99.90;;;;;;5015133;28;20030;-74
2022/02/03 06:53:29;;;;;;;23.05;10.65;;;5.60;99.90;;;;;;5034306;28;20822;-75
2022/02/03 06:56:03;;;;;;;23.27;11.55;;;5.60;99.90;;;;;;5037517;28;20112;-74
2022/02/03 06:58:36;;;;;;;22.98;11.55;;;5.70;99.90;;;;;;5022707;28;20061;-73
2022/02/03 07:03:36;;;;;;;24.38;11.82;;;5.70;99.90;;;;;;5024281;28;20029;-72
2022/02/03 07:06:02;;;;;;;24.13;12.07;;;5.70;99.90;;;;;;5040353;28;20490;-73
2022/02/03 07:08:29;;;;;;;19.88;11.23;;;5.70;99.90;;;;;;5037372;28;20440;-74
2022/02/03 07:10:56;;;;;;;22.27;10.65;;;5.70;99.90;;;;;;5034130;28;20950;-73
2022/02/03 07:13:23;;;;;;;23.50;11.15;;;5.70;99.90;;;;;;5037218;28;20025;-74
2022/02/03 07:15:49;;;;;;;26.45;12.88;;;5.80;99.90;;;;;;5037034;28;20037;-75
2022/02/03 07:18:14;;;;;;;24.17;12.02;;;5.80;99.90;;;;;;5038528;28;20033;-75
2022/02/03 07:20:41;;;;;;;24.50;12.23;;;5.80;99.90;;;;;;5036552;28;20037;-76
2022/02/03 07:23:06;;;;;;;22.98;12.30;;;5.90;99.90;;;;;;5018982;28;20036;-76
2022/02/03 07:25:33;;;;;;;24.63;12.82;;;5.90;99.90;;;;;;5030411;28;20034;-75
2022/02/03 07:28:01;;;;;;;24.48;12.43;;;5.90;99.90;;;;;;5039061;28;20089;-73
2022/02/03 07:30:26;;;;;;;24.45;12.45;;;5.90;99.90;;;;;;5041780;28;20083;-76
2022/02/03 07:32:56;;;;;;;24.25;11.90;;;5.90;99.90;;;;;;5041993;28;20029;-76
2022/02/03 07:35:22;;;;;;;23.77;12.90;;;5.90;99.90;;;;;;5043937;28;20474;-74
2022/02/03 07:37:49;;;;;;;23.23;12.30;;;6.00;99.90;;;;;;5043446;28;20029;-76
2022/02/03 07:40:17;;;;;;;26.80;13.15;;;6.00;99.90;;;;;;5024865;28;20020;-76
2022/02/03 07:42:46;;;;;;;24.35;12.52;;;6.00;99.90;;;;;;5040995;28;20033;-75
2022/02/03 07:45:12;;;;;;;27.23;13.32;;;6.00;99.90;;;;;;5022077;28;20051;-74
2022/02/03 07:47:50;;;;;;;26.95;12.95;;;6.00;99.90;;;;;;5035219;28;20438;-74
2022/02/03 07:50:17;;;;;;;28.52;13.07;;;6.00;99.90;;;;;;5041849;28;20483;-75
2022/02/03 07:52:44;;;;;;;29.75;13.18;;;6.10;99.90;;;;;;5035971;28;20025;-76
2022/02/03 07:55:11;;;;;;;24.63;13.38;;;6.10;99.90;;;;;;5034913;28;20048;-75
2022/02/03 07:57:42;;;;;;;23.77;12.30;;;6.20;99.90;;;;;;5036975;28;20033;-77
2022/02/03 08:00:08;;;;;;;29.00;13.38;;;6.20;99.90;;;;;;5024429;28;20113;-76
2022/02/03 08:02:35;;;;;;;26.55;12.15;;;6.20;99.90;;;;;;5036591;28;20193;-77
2022/02/03 08:05:04;;;;;;;27.83;12.77;;;6.20;99.90;;;;;;5036752;28;20052;-76
2022/02/03 08:07:30;;;;;;;31.25;14.00;;;6.20;99.90;;;;;;5032388;28;20047;-75
2022/02/03 08:10:01;;;;;;;33.22;13.25;;;6.30;99.90;;;;;;5034886;28;20029;-76
2022/02/03 08:12:33;;;;;;;35.45;15.27;;;6.30;99.90;;;;;;5033774;28;20040;-75
2022/02/03 08:15:00;;;;;;;35.22;13.57;;;6.30;99.90;;;;;;5037435;28;20033;-74
2022/02/03 08:17:36;;;;;;;34.75;13.35;;;6.30;99.90;;;;;;5037574;28;20021;-76
2022/02/03 08:20:08;;;;;;;33.08;14.70;;;6.30;99.90;;;;;;5038494;28;20079;-77
2022/02/03 08:22:37;;;;;;;;;;;6.30;99.90;;;;;;5038688;28;20556;-77
2022/02/03 08:25:15;;;;;;;30.95;13.38;;;6.40;99.90;;;;;;5035361;28;19936;-74
2022/02/03 08:33:02;;;;;;;36.42;15.27;;;6.40;99.90;;;;;;5040921;28;20044;-77
2022/02/03 08:35:38;;;;;;;35.65;15.20;;;6.40;99.90;;;;;;5017700;28;20422;-75
2022/02/03 08:40:46;;;;;;;39.72;15.45;;;6.50;99.90;;;;;;5037158;28;20029;-74
2022/02/03 08:43:13;;;;;;;34.22;15.50;;;6.50;99.90;;;;;;5017411;28;20036;-73
2022/02/03 08:45:40;;;;;;;39.95;16.77;;;6.50;99.90;;;;;;5021075;28;20507;-74
2022/02/03 08:48:06;;;;;;;44.45;17.35;;;6.50;99.90;;;;;;5008096;28;20025;-74
2022/02/03 08:50:34;;;;;;;40.97;17.15;;;6.60;99.90;;;;;;5033648;28;20021;-73
2022/02/03 08:56:01;;;;;;;38.35;16.70;;;6.60;99.90;;;;;;5036936;28;20112;-73
2022/02/03 09:41:41;;;;;;;41.85;17.90;;;7.20;99.90;;;;;;5044050;28;20107;-75
2022/02/03 10:00:32;;;;;;;43.10;18.52;;;7.40;99.90;;;;;;5032863;28;20034;-74
2022/02/03 10:03:00;;;;;;;36.65;16.40;;;7.40;99.90;;;;;;5020690;28;20646;-74
2022/02/03 10:05:36;;;;;;;40.60;17.33;;;7.40;99.90;;;;;;5031664;28;20063;-73
2022/02/03 10:08:03;;;;;;;37.72;17.75;;;7.40;99.90;;;;;;5021921;28;20457;-75
2022/02/03 10:10:30;;;;;;;35.70;16.20;;;7.40;99.90;;;;;;5043483;28;20091;-73
2022/02/03 10:12:56;;;;;;;43.42;18.80;;;7.50;99.90;;;;;;5043305;28;20021;-74
2022/02/03 10:15:22;;;;;;;46.22;18.98;;;7.50;99.90;;;;;;5034217;28;20025;-74
2022/02/03 10:17:50;;;;;;;47.90;19.50;;;7.60;99.90;;;;;;5037558;28;20137;-74
2022/02/03 10:20:20;;;;;;;51.53;20.80;;;7.60;99.90;;;;;;5020076;28;20064;-75
2022/02/03 10:22:49;;;;;;;55.38;22.15;;;7.60;99.90;;;;;;5040703;28;20025;-74
2022/02/03 10:25:26;;;;;;;52.38;22.58;;;7.70;99.90;;;;;;5038007;28;20029;-74
2022/02/03 10:28:09;;;;;;;56.45;24.48;;;7.70;99.90;;;;;;5038337;28;20018;-74
2022/02/03 10:30:48;;;;;;;56.20;22.50;;;7.70;99.90;;;;;;5039452;28;20292;-73
2022/02/03 10:33:17;;;;;;;65.35;24.33;;;7.70;99.90;;;;;;5043760;28;20100;-74
2022/02/03 10:35:55;;;;;;;65.40;26.88;;;7.80;99.90;;;;;;5034674;28;20028;-73
2022/02/03 10:44:09;;;;;;;73.40;27.40;;;7.80;99.90;;;;;;5035146;28;20261;-75
2022/02/03 10:59:57;;;;;;;66.03;26.30;;;7.90;99.90;;;;;;5036278;28;20085;-73
2022/02/03 11:12:35;;;;;;;69.65;25.52;;;7.90;99.90;;;;;;5032109;28;20105;-74
2022/02/03 11:15:02;;;;;;;71.68;26.58;;;7.90;99.90;;;;;;5037265;28;20556;-74
2022/02/03 11:17:29;;;;;;;62.47;24.77;;;7.90;99.90;;;;;;5015417;28;20086;-74
2022/02/03 11:19:58;;;;;;;72.25;28.15;;;8.00;99.90;;;;;;5032015;28;20511;-75
2022/02/03 11:22:32;;;;;;;71.18;27.73;;;7.90;99.90;;;;;;5018960;28;20032;-74
2022/02/03 11:44:46;;;;;;;65.85;27.05;;;8.00;99.90;;;;;;5033114;28;20099;-74
2022/02/03 11:57:13;;;;;;;55.05;24.88;;;8.00;99.90;;;;;;5019799;28;20037;-74
2022/02/03 12:11:17;;;;;;;57.55;24.55;;;7.90;99.90;;;;;;5033941;28;20017;-72
2022/02/03 12:13:57;;;;;;;;;;;7.90;99.90;;;;;;5033805;28;20063;-72
2022/02/03 12:19:18;;;;;;;52.00;23.45;;;7.90;99.90;;;;;;5030711;28;20035;-72
2022/02/03 12:22:05;;;;;;;53.75;23.67;;;7.90;99.90;;;;;;5026668;28;20070;-72
2022/02/03 12:30:03;;;;;;;49.47;22.40;;;7.80;99.90;;;;;;5034232;28;20021;-73
2022/02/03 12:38:14;;;;;;;42.33;20.95;;;7.90;99.90;;;;;;5033333;28;20025;-73
2022/02/03 12:40:53;;;;;;;45.35;21.08;;;7.90;99.90;;;;;;5040894;28;20030;-74
2022/02/03 12:45:52;;;;;;;43.95;21.05;;;7.90;99.90;;;;;;5034919;28;20684;-73
2022/02/03 12:48:26;;;;;;;41.47;22.98;;;7.90;99.90;;;;;;5043109;28;20152;-74
2022/02/03 12:50:53;;;;;;;43.70;20.95;;;7.90;99.90;;;;;;5038616;28;20021;-72
2022/02/03 12:53:20;;;;;;;46.22;21.35;;;7.90;99.90;;;;;;5035406;28;20030;-72
2022/02/03 12:55:51;;;;;;;40.00;18.95;;;7.90;99.90;;;;;;5012377;28;20033;-73
2022/02/03 12:58:23;;;;;;;38.30;18.75;;;7.90;99.90;;;;;;5031984;28;20144;-73
2022/02/03 13:03:30;;;;;;;37.58;17.80;;;7.90;99.90;;;;;;5041891;28;20035;-73
2022/02/03 13:06:03;;;;;;;34.40;16.98;;;7.90;99.90;;;;;;5037327;28;20147;-72
2022/02/03 13:08:37;;;;;;;33.85;16.73;;;7.90;99.90;;;;;;5012744;28;20053;-72
2022/02/03 13:14:16;;;;;;;29.48;16.10;;;7.90;99.90;;;;;;5038250;28;20049;-74
2022/02/03 13:17:17;;;;;;;29.60;16.35;;;7.90;99.90;;;;;;5038639;28;20045;-74
2022/02/03 13:19:58;;;;;;;436.38;211.23;;;7.80;99.90;;;;;;5032649;28;20036;-73
2022/02/03 13:28:24;;;;;;;56.70;31.20;;;7.80;99.90;;;;;;5036231;28;20463;-74
2022/02/03 13:30:33;;;;;;;34.05;17.60;;;7.90;99.90;;;;;;5012686;28;20030;-73
2022/02/03 13:33:02;;;;;;;40.90;17.45;;;7.80;99.90;;;;;;5033438;28;20029;-73
2022/02/03 13:35:43;;;;;;;32.13;15.93;;;7.80;99.90;;;;;;5032635;28;20053;-72
2022/02/03 13:38:21;;;;;;;35.90;16.67;;;7.80;99.90;;;;;;5033088;28;20036;-73
2022/02/03 13:40:46;;;;;;;35.83;17.05;;;7.80;99.90;;;;;;5032973;28;20063;-73
2022/02/03 13:43:14;;;;;;;36.95;16.10;;;7.80;99.90;;;;;;5022468;28;20069;-72
2022/02/03 13:45:42;;;;;;;32.08;16.35;;;7.80;99.90;;;;;;5038467;28;20438;-73
2022/02/03 13:48:18;;;;;;;33.22;15.77;;;7.80;99.90;;;;;;5007449;28;20519;-72
2022/02/03 13:50:57;;;;;;;32.42;17.33;;;7.80;99.90;;;;;;5034228;28;20021;-73
2022/02/03 13:53:33;;;;;;;32.83;15.45;;;7.70;99.90;;;;;;5039425;28;20029;-73
2022/02/03 14:21:59;;;;;;;26.17;14.45;;;7.60;99.90;;;;;;4974735;28;20030;-72
2022/02/03 14:29:30;;;;;;;30.10;13.32;;;7.60;99.90;;;;;;5034533;28;20021;-72
2022/02/03 14:32:03;;;;;;;34.72;13.85;;;7.60;99.90;;;;;;5023421;28;20022;-71
2022/02/03 14:34:33;;;;;;;26.52;13.15;;;7.60;99.90;;;;;;5022516;28;20021;-72
2022/02/03 14:37:17;;;;;;;27.13;12.60;;;7.50;99.90;;;;;;5043879;28;20449;-72
2022/02/03 14:40:00;;;;;;;27.63;13.15;;;7.50;99.90;;;;;;5039385;28;20467;-73
2022/02/03 14:42:30;;;;;;;26.35;12.77;;;7.50;99.90;;;;;;5036656;28;20033;-73
2022/02/03 14:44:56;;;;;;;33.00;15.07;;;7.50;99.90;;;;;;5016537;28;20113;-73
2022/02/03 14:47:26;;;;;;;29.02;13.52;;;7.50;99.90;;;;;;5012684;28;21923;-73
2022/02/03 14:49:53;;;;;;;31.08;13.88;;;7.50;99.90;;;;;;5028903;28;20021;-73
2022/02/03 14:52:27;;;;;;;28.10;13.50;;;7.50;99.90;;;;;;5035827;28;20068;-73
2022/02/03 15:00:24;;;;;;;26.40;13.73;;;7.50;99.90;;;;;;5039804;28;20032;-72
2022/02/03 15:02:53;;;;;;;30.52;13.32;;;7.40;99.90;;;;;;5037429;28;20115;-72
2022/02/03 15:05:25;;;;;;;28.05;13.43;;;7.40;99.90;;;;;;5036699;28;20232;-71
2022/02/03 15:07:59;;;;;;;30.77;15.40;;;7.40;99.90;;;;;;5011946;28;20079;-72
2022/02/03 15:10:50;;;;;;;28.13;13.90;;;7.40;99.90;;;;;;5034582;28;20029;-72
2022/02/03 15:15:41;;;;;;;26.08;12.52;;;7.40;99.90;;;;;;5039629;28;20033;-71
2022/02/03 15:18:10;;;;;;;26.40;13.85;;;7.50;99.90;;;;;;5034873;28;20037;-72
2022/02/03 15:20:37;;;;;;;26.08;12.80;;;7.50;99.90;;;;;;5033952;28;20033;-71
2022/02/03 15:23:04;;;;;;;23.77;12.43;;;7.40;99.90;;;;;;5017370;28;20026;-72
2022/02/03 15:25:30;;;;;;;28.65;13.32;;;7.40;99.90;;;;;;5032084;28;20094;-72
2022/02/03 15:27:57;;;;;;;24.48;13.32;;;7.40;99.90;;;;;;5038084;28;20025;-72
2022/02/03 15:30:23;;;;;;;24.80;13.10;;;7.40;99.90;;;;;;5034391;28;20037;-72
2022/02/03 15:32:50;;;;;;;23.73;12.82;;;7.40;99.90;;;;;;5034585;28;20470;-72
2022/02/03 15:35:24;;;;;;;26.02;12.57;;;7.40;99.90;;;;;;5037142;28;20474;-73
2022/02/03 15:37:51;;;;;;;21.52;11.88;;;7.40;99.90;;;;;;5032170;28;20244;-72
2022/02/03 15:40:21;;;;;;;21.25;11.13;;;7.40;99.90;;;;;;5022251;28;20025;-73
2022/02/03 15:43:10;;;;;;;21.88;11.88;;;7.40;99.90;;;;;;5018968;28;20037;-72
2022/02/03 15:45:40;;;;;;;28.13;13.18;;;7.40;99.90;;;;;;5052645;22;20033;-76
2022/02/03 16:17:50;;;;;;;23.13;12.05;;;7.20;99.90;;;;;;5032066;28;20035;-74
2022/02/03 16:20:24;;;;;;;20.95;11.45;;;7.20;99.90;;;;;;5030538;28;20025;-74
2022/02/03 16:25:56;;;;;;;26.70;12.50;;;7.20;99.90;;;;;;5034407;28;20108;-74
2022/02/03 16:42:46;;;;;;;27.60;13.85;;;7.10;99.90;;;;;;5034594;28;20087;-73
2022/02/03 16:50:49;;;;;;;24.13;13.63;;;7.10;99.90;;;;;;5032393;28;20021;-73
2022/02/03 16:52:57;;;;;;;29.42;14.73;;;7.10;99.90;;;;;;5031851;28;20029;-72
2022/02/03 16:55:25;;;;;;;29.30;15.82;;;7.10;99.90;;;;;;5033803;28;20064;-73
2022/02/03 16:57:54;;;;;;;26.58;14.60;;;7.00;99.90;;;;;;5035043;28;20403;-74
2022/02/03 17:00:20;;;;;;;28.95;15.32;;;7.00;99.90;;;;;;5032982;28;20025;-73
2022/02/03 17:02:46;;;;;;;26.30;14.18;;;7.00;99.90;;;;;;5029882;28;20033;-73
2022/02/03 17:05:13;;;;;;;29.02;15.32;;;7.00;99.90;;;;;;5031499;28;20033;-73
2022/02/03 17:07:38;;;;;;;27.70;14.35;;;7.00;99.90;;;;;;5037184;28;20017;-73
2022/02/03 17:10:10;;;;;;;31.77;15.13;;;7.00;99.90;;;;;;5046266;28;20031;-73
2022/02/03 17:12:36;;;;;;;30.05;14.95;;;7.00;99.90;;;;;;5033475;28;20029;-72
2022/02/03 17:15:01;;;;;;;29.20;15.52;;;6.90;99.90;;;;;;5029221;28;20029;-74
2022/02/03 17:17:27;;;;;;;31.75;15.80;;;7.00;99.90;;;;;;5029502;28;20072;-74
2022/02/03 17:19:53;;;;;;;30.92;15.77;;;7.00;99.90;;;;;;5031981;28;20037;-73
2022/02/03 17:22:25;;;;;;;32.20;15.13;;;7.00;99.90;;;;;;5036477;28;20060;-73
2022/02/03 17:30:24;;;;;;;26.85;14.27;;;7.00;99.90;;;;;;5004024;28;20029;-73
2022/02/03 18:02:57;;;;;;;27.08;15.15;;;7.00;99.90;;;;;;5036651;28;20031;-74
2022/02/03 18:45:47;;;;;;;30.40;16.08;;;7.00;99.90;;;;;;5040022;28;20820;-75
2022/02/03 18:51:37;;;;;;;35.78;18.13;;;6.90;99.90;;;;;;5043800;28;20095;-76
2022/02/03 18:54:18;;;;;;;33.00;17.60;;;6.90;99.90;;;;;;5047183;28;20459;-76
2022/02/03 18:56:55;;;;;;;34.55;19.25;;;6.90;99.90;;;;;;5030453;28;20026;-75
2022/02/03 20:08:40;;;;;;;37.33;19.48;;;6.80;99.90;;;;;;5027662;28;20394;-74
2022/02/03 20:11:08;;;;;;;40.78;20.45;;;6.80;99.90;;;;;;5034709;28;20068;-75
2022/02/03 20:13:34;;;;;;;39.33;19.40;;;6.80;99.90;;;;;;5036724;28;20031;-76
2022/02/03 20:16:00;;;;;;;42.78;20.30;;;6.90;99.90;;;;;;5033405;28;20033;-79
2022/02/03 20:18:25;;;;;;;44.38;20.25;;;6.80;99.90;;;;;;5035033;28;20041;-74
2022/02/03 20:20:51;;;;;;;40.38;20.50;;;6.80;99.90;;;;;;5037569;28;20029;-75
2022/02/03 20:23:19;;;;;;;38.30;20.00;;;6.80;99.90;;;;;;5034819;28;20025;-74
2022/02/03 20:25:56;;;;;;;40.45;21.02;;;6.80;99.90;;;;;;5032898;28;20036;-74
2022/02/03 20:28:25;;;;;;;42.85;21.48;;;6.80;99.90;;;;;;5033111;28;20025;-76
2022/02/03 20:30:51;;;;;;;41.47;20.80;;;6.80;99.90;;;;;;5030025;28;20498;-75
2022/02/03 20:33:17;;;;;;;42.58;21.75;;;6.80;99.90;;;;;;5029101;28;20475;-76
2022/02/03 20:35:43;;;;;;;46.20;22.92;;;6.80;99.90;;;;;;5029677;28;20083;-76
2022/02/03 20:38:10;;;;;;;41.60;21.92;;;6.80;99.90;;;;;;5029344;28;20034;-76
2022/02/03 20:40:36;;;;;;;38.53;20.50;;;6.80;99.90;;;;;;5031066;28;20071;-74
2022/02/03 20:43:03;;;;;;;42.47;22.15;;;6.80;99.90;;;;;;5033917;28;20053;-75
2022/02/03 20:45:29;;;;;;;42.05;21.77;;;6.80;99.90;;;;;;5038380;28;20083;-76
2022/02/03 20:47:54;;;;;;;45.58;22.48;;;6.80;99.90;;;;;;5013905;28;20132;-75
2022/02/03 20:50:20;;;;;;;42.38;21.95;;;6.80;99.90;;;;;;5036907;28;20101;-75
2022/02/03 20:52:49;;;;;;;43.95;22.33;;;6.80;99.90;;;;;;5034871;28;20036;-74
2022/02/03 20:55:16;;;;;;;479.95;264.70;;;6.80;99.90;;;;;;5038191;28;20116;-74
2022/02/03 20:57:42;;;;;;;134.80;72.70;;;6.80;99.90;;;;;;5039902;28;20033;-74
2022/02/03 21:02:50;;;;;;;86.60;45.40;;;6.80;99.90;;;;;;5028215;28;20026;-76
2022/02/03 21:05:16;;;;;;;46.40;23.13;;;6.80;99.90;;;;;;5037055;28;20141;-77
2022/02/03 21:07:48;;;;;;;47.80;23.65;;;6.80;99.90;;;;;;5031340;28;20032;-74
2022/02/03 21:10:18;;;;;;;43.70;22.75;;;6.80;99.90;;;;;;5035300;28;20079;-75
2022/02/03 21:12:46;;;;;;;47.47;23.90;;;6.80;99.90;;;;;;5035454;28;20558;-73
2022/02/03 21:15:20;;;;;;;42.30;23.17;;;6.80;99.90;;;;;;5036146;28;20491;-74
2022/02/03 21:17:45;;;;;;;45.55;22.80;;;6.80;99.90;;;;;;5035146;28;20037;-76
2022/02/03 21:20:14;;;;;;;46.42;23.75;;;6.70;99.90;;;;;;5035305;28;20029;-74
2022/02/03 21:22:40;;;;;;;46.40;23.90;;;6.70;99.90;;;;;;5027506;28;20032;-76
2022/02/03 21:25:19;;;;;;;51.28;26.00;;;6.70;99.90;;;;;;5030439;28;20458;-74
2022/02/03 21:27:46;;;;;;;42.50;22.73;;;6.70;99.90;;;;;;5031492;28;20025;-73
2022/02/03 21:30:15;;;;;;;54.65;26.02;;;6.80;99.90;;;;;;5030771;28;20030;-74
2022/02/03 21:32:40;;;;;;;51.35;25.27;;;6.80;99.90;;;;;;5033521;28;20052;-75
2022/02/03 21:35:08;;;;;;;51.20;26.52;;;6.80;99.90;;;;;;5029720;28;20033;-74
2022/02/03 21:37:34;;;;;;;49.22;23.48;;;6.70;99.90;;;;;;5027645;28;20100;-74
2022/02/03 21:40:00;;;;;;;50.53;25.65;;;6.70;99.90;;;;;;5038720;28;20104;-74
2022/02/03 21:42:26;;;;;;;51.78;26.63;;;6.70;99.90;;;;;;5026624;28;20026;-73
2022/02/03 21:44:51;;;;;;;49.55;25.27;;;6.70;99.90;;;;;;5036341;28;20030;-74
2022/02/03 21:47:18;;;;;;;48.25;24.45;;;6.80;99.90;;;;;;5024111;22;1206690;-73
2022/02/03 21:49:44;;;;;;;52.67;26.58;;;6.80;99.90;;;;;;5058904;28;20043;-73
2022/02/03 21:52:18;;;;;;;50.53;25.25;;;6.80;99.90;;;;;;5039644;28;20036;-74
2022/02/03 21:54:44;;;;;;;52.97;27.55;;;6.70;99.90;;;;;;5061638;28;20040;-75
2022/02/03 21:57:11;;;;;;;51.60;26.55;;;6.70;99.90;;;;;;5057075;28;20385;-72
2022/02/03 21:59:36;;;;;;;54.72;25.63;;;6.70;99.90;;;;;;5053675;28;20113;-74
2022/02/03 22:02:05;;;;;;;48.30;26.50;;;6.70;99.90;;;;;;5075616;28;20106;-74
2022/02/03 22:04:31;;;;;;;54.80;25.83;;;6.70;99.90;;;;;;5078718;28;20081;-74
2022/02/03 22:06:57;;;;;;;51.70;25.33;;;6.70;99.90;;;;;;5075420;28;20033;-76
2022/02/03 22:09:23;;;;;;;50.80;25.80;;;6.70;99.90;;;;;;5075611;28;20041;-74
2022/02/03 22:11:48;;;;;;;46.85;23.92;;;6.70;99.90;;;;;;5078193;28;20024;-74
2022/02/03 22:14:14;;;;;;;54.78;24.92;;;6.70;99.90;;;;;;5056559;28;20120;-74
2022/02/03 22:16:40;;;;;;;47.22;24.60;;;6.70;99.90;;;;;;5061689;28;20098;-75
2022/02/03 22:19:06;;;;;;;52.40;25.20;;;6.70;99.90;;;;;;5076072;28;20389;-75
2022/02/03 22:21:48;;;;;;;51.08;25.05;;;6.70;99.90;;;;;;5059152;28;20026;-75
2022/02/03 22:27:05;;;;;;;53.00;25.30;;;6.70;99.90;;;;;;5080498;28;20466;-76
2022/02/03 22:43:31;;;;;;;80.25;38.97;;;6.70;99.90;;;;;;5081135;28;20443;-74
2022/02/03 22:46:05;;;;;;;324.52;179.68;;;6.70;99.90;;;;;;5082597;28;20017;-75
2022/02/03 22:48:31;;;;;;;121.03;58.30;;;6.70;99.90;;;;;;5045839;28;20032;-74
2022/02/03 22:50:59;;;;;;;76.75;37.80;;;6.70;99.90;;;;;;5060412;28;20031;-74
2022/02/03 22:53:32;;;;;;;53.47;27.23;;;6.70;99.90;;;;;;5080774;28;20482;-74
2022/02/03 22:56:00;;;;;;;57.88;27.27;;;6.70;99.90;;;;;;5055831;28;20048;-74
2022/02/03 23:01:03;;;;;;;54.10;24.77;;;6.70;99.90;;;;;;5075363;28;20532;-74
2022/02/03 23:03:31;;;;;;;50.60;24.90;;;6.70;99.90;;;;;;5076947;28;20024;-74
2022/02/03 23:05:58;;;;;;;48.67;24.67;;;6.70;99.90;;;;;;5077791;28;20036;-75
2022/02/03 23:11:33;;;;;;;54.95;25.65;;;6.70;99.90;;;;;;5082234;28;20017;-75
2022/02/03 23:14:13;;;;;;;47.47;23.70;;;6.70;99.90;;;;;;5041248;28;20124;-75
2022/02/03 23:19:33;;;;;;;44.65;22.60;;;6.70;99.90;;;;;;5079029;28;20321;-75
2022/02/03 23:22:13;;;;;;;48.45;23.90;;;6.80;99.90;;;;;;5077414;28;20020;-75
2022/02/03 23:24:48;;;;;;;44.03;22.35;;;6.80;99.90;;;;;;5078099;28;20055;-75
2022/02/03 23:29:59;;;;;;;49.20;23.75;;;6.70;99.90;;;;;;5058488;28;20032;-74
2022/02/03 23:32:29;;;;;;;42.65;23.27;;;6.80;99.90;;;;;;5073889;28;20028;-74
2022/02/03 23:35:09;;;;;;;46.90;22.77;;;6.80;99.90;;;;;;5076940;28;20025;-73
2022/02/03 23:37:40;;;;;;;48.63;23.92;;;6.80;99.90;;;;;;5073431;28;20062;-74
2022/02/03 23:40:53;;;;;;;49.28;23.58;;;6.70;99.90;;;;;;5070478;28;20073;-75
